sensor_id;sensor_type;location;lat;lon;timestamp;pressure;altitude;pressure_sealevel;temperature;humidity
61870;BME280;47810;42.264;23.826;2022-07-05T00:02:21;94132.56;;;19.10;61.55
61870;BME280;47810;42.264;23.826;2022-07-05T00:04:47;94132.03;;;18.58;61.32
61870;BME280;47810;42.264;23.826;2022-07-05T00:07:13;94122.34;;;18.47;62.31
61870;BME280;47810;42.264;23.826;2022-07-05T00:09:45;94116.28;;;18.26;62.16
61870;BME280;47810;42.264;23.826;2022-07-05T00:12:11;94121.91;;;18.32;62.94
61870;BME280;47810;42.264;23.826;2022-07-05T00:14:40;94121.06;;;18.42;63.40
61870;BME280;47810;42.264;23.826;2022-07-05T00:17:06;94117.13;;;18.26;63.18
61870;BME280;47810;42.264;23.826;2022-07-05T00:19:32;94109.97;;;18.17;62.71
61870;BME280;47810;42.264;23.826;2022-07-05T00:21:58;94102.25;;;18.33;63.87
61870;BME280;47810;42.264;23.826;2022-07-05T00:24:25;94099.13;;;18.38;63.83
61870;BME280;47810;42.264;23.826;2022-07-05T00:26:51;94102.22;;;18.53;63.23
61870;BME280;47810;42.264;23.826;2022-07-05T00:29:17;94103.47;;;18.49;63.06
61870;BME280;47810;42.264;23.826;2022-07-05T00:31:43;94101.66;;;18.59;63.75
61870;BME280;47810;42.264;23.826;2022-07-05T00:34:08;94094.31;;;18.61;62.64
61870;BME280;47810;42.264;23.826;2022-07-05T00:36:34;94096.03;;;18.62;63.23
61870;BME280;47810;42.264;23.826;2022-07-05T00:39:00;94082.38;;;18.75;62.35
61870;BME280;47810;42.264;23.826;2022-07-05T00:41:26;94086.19;;;18.72;61.70
61870;BME280;47810;42.264;23.826;2022-07-05T00:43:54;94084.19;;;18.74;63.12
61870;BME280;47810;42.264;23.826;2022-07-05T00:46:20;94077.16;;;18.63;62.17
61870;BME280;47810;42.264;23.826;2022-07-05T00:48:47;94080.38;;;18.67;62.46
61870;BME280;47810;42.264;23.826;2022-07-05T00:51:12;94072.91;;;18.80;62.37
61870;BME280;47810;42.264;23.826;2022-07-05T00:53:39;94072.94;;;18.42;62.86
61870;BME280;47810;42.264;23.826;2022-07-05T00:56:06;94081.53;;;18.35;65.45
61870;BME280;47810;42.264;23.826;2022-07-05T00:58:33;94080.56;;;18.75;62.91
61870;BME280;47810;42.264;23.826;2022-07-05T01:01:02;94066.47;;;18.73;63.49
61870;BME280;47810;42.264;23.826;2022-07-05T01:03:29;94069.59;;;18.39;62.12
61870;BME280;47810;42.264;23.826;2022-07-05T01:05:55;94072.13;;;18.31;63.41
61870;BME280;47810;42.264;23.826;2022-07-05T01:08:22;94066.22;;;18.37;65.03
61870;BME280;47810;42.264;23.826;2022-07-05T01:10:50;94071.25;;;18.60;63.61
61870;BME280;47810;42.264;23.826;2022-07-05T01:13:17;94061.13;;;18.54;63.27
61870;BME280;47810;42.264;23.826;2022-07-05T01:15:43;94056.63;;;18.45;62.37
61870;BME280;47810;42.264;23.826;2022-07-05T01:18:09;94044.56;;;18.02;63.24
61870;BME280;47810;42.264;23.826;2022-07-05T01:20:36;94052.13;;;17.97;63.63
61870;BME280;47810;42.264;23.826;2022-07-05T01:23:02;94056.09;;;18.12;64.08
61870;BME280;47810;42.264;23.826;2022-07-05T01:25:30;94049.34;;;18.18;63.71
61870;BME280;47810;42.264;23.826;2022-07-05T01:27:57;94055.09;;;18.32;65.31
61870;BME280;47810;42.264;23.826;2022-07-05T01:30:24;94060.44;;;18.13;65.66
61870;BME280;47810;42.264;23.826;2022-07-05T01:32:50;94055.25;;;18.02;65.26
61870;BME280;47810;42.264;23.826;2022-07-05T01:35:17;94055.53;;;18.08;66.54
61870;BME280;47810;42.264;23.826;2022-07-05T01:37:47;94062.44;;;18.11;65.00
61870;BME280;47810;42.264;23.826;2022-07-05T01:40:13;94067.34;;;18.06;65.95
61870;BME280;47810;42.264;23.826;2022-07-05T01:42:39;94062.00;;;18.15;66.03
61870;BME280;47810;42.264;23.826;2022-07-05T01:45:06;94057.03;;;18.59;63.79
61870;BME280;47810;42.264;23.826;2022-07-05T01:47:37;94062.41;;;17.91;63.98
61870;BME280;47810;42.264;23.826;2022-07-05T01:50:06;94063.31;;;17.71;65.42
61870;BME280;47810;42.264;23.826;2022-07-05T01:52:36;94071.25;;;17.82;64.97
61870;BME280;47810;42.264;23.826;2022-07-05T01:55:04;94072.13;;;17.42;65.69
61870;BME280;47810;42.264;23.826;2022-07-05T01:57:30;94075.38;;;17.56;65.72
61870;BME280;47810;42.264;23.826;2022-07-05T01:59:55;94076.50;;;17.43;66.25
61870;BME280;47810;42.264;23.826;2022-07-05T02:02:21;94069.00;;;17.78;66.64
61870;BME280;47810;42.264;23.826;2022-07-05T02:04:47;94067.09;;;17.59;66.23
61870;BME280;47810;42.264;23.826;2022-07-05T02:07:13;94068.56;;;17.32;67.24
61870;BME280;47810;42.264;23.826;2022-07-05T02:09:39;94068.66;;;17.11;68.16
61870;BME280;47810;42.264;23.826;2022-07-05T02:12:05;94079.59;;;17.49;67.85
61870;BME280;47810;42.264;23.826;2022-07-05T02:14:31;94071.31;;;17.61;66.90
61870;BME280;47810;42.264;23.826;2022-07-05T02:16:57;94071.53;;;17.79;68.46
61870;BME280;47810;42.264;23.826;2022-07-05T02:19:23;94069.84;;;17.78;67.19
61870;BME280;47810;42.264;23.826;2022-07-05T02:21:49;94077.56;;;17.31;67.71
61870;BME280;47810;42.264;23.826;2022-07-05T02:24:15;94071.69;;;17.37;68.28
61870;BME280;47810;42.264;23.826;2022-07-05T02:26:41;94061.94;;;17.67;66.68
61870;BME280;47810;42.264;23.826;2022-07-05T02:29:07;94062.75;;;17.58;66.46
61870;BME280;47810;42.264;23.826;2022-07-05T02:31:32;94056.81;;;17.44;66.25
61870;BME280;47810;42.264;23.826;2022-07-05T02:33:59;94057.03;;;17.22;66.91
61870;BME280;47810;42.264;23.826;2022-07-05T02:36:25;94060.25;;;17.16;67.02
61870;BME280;47810;42.264;23.826;2022-07-05T02:38:51;94067.97;;;17.19;67.34
61870;BME280;47810;42.264;23.826;2022-07-05T02:41:18;94065.19;;;17.30;67.39
61870;BME280;47810;42.264;23.826;2022-07-05T02:43:45;94064.66;;;17.36;67.36
61870;BME280;47810;42.264;23.826;2022-07-05T02:46:10;94067.75;;;17.32;67.92
61870;BME280;47810;42.264;23.826;2022-07-05T02:48:37;94062.50;;;17.70;67.21
61870;BME280;47810;42.264;23.826;2022-07-05T02:51:03;94056.03;;;17.73;67.63
61870;BME280;47810;42.264;23.826;2022-07-05T02:53:29;94066.13;;;17.60;67.71
61870;BME280;47810;42.264;23.826;2022-07-05T02:55:55;94062.47;;;17.61;67.71
61870;BME280;47810;42.264;23.826;2022-07-05T02:58:21;94058.81;;;17.62;67.73
61870;BME280;47810;42.264;23.826;2022-07-05T03:00:48;94057.28;;;17.59;68.35
61870;BME280;47810;42.264;23.826;2022-07-05T03:03:15;94052.19;;;17.46;68.28
61870;BME280;47810;42.264;23.826;2022-07-05T03:05:41;94055.13;;;17.34;68.84
61870;BME280;47810;42.264;23.826;2022-07-05T03:08:06;94064.34;;;17.30;69.06
61870;BME280;47810;42.264;23.826;2022-07-05T03:10:33;94063.16;;;17.43;69.94
61870;BME280;47810;42.264;23.826;2022-07-05T03:13:00;94065.28;;;17.50;70.37
61870;BME280;47810;42.264;23.826;2022-07-05T03:15:26;94064.44;;;17.59;68.89
61870;BME280;47810;42.264;23.826;2022-07-05T03:17:51;94063.19;;;17.63;70.12
61870;BME280;47810;42.264;23.826;2022-07-05T03:20:17;94063.66;;;17.87;68.95
61870;BME280;47810;42.264;23.826;2022-07-05T03:22:43;94052.38;;;17.74;67.01
61870;BME280;47810;42.264;23.826;2022-07-05T03:25:09;94060.22;;;17.46;68.39
61870;BME280;47810;42.264;23.826;2022-07-05T03:27:35;94054.72;;;17.48;69.85
61870;BME280;47810;42.264;23.826;2022-07-05T03:30:03;94056.81;;;17.44;69.31
61870;BME280;47810;42.264;23.826;2022-07-05T03:32:29;94052.91;;;17.68;69.96
61870;BME280;47810;42.264;23.826;2022-07-05T03:34:54;94050.41;;;17.66;70.24
61870;BME280;47810;42.264;23.826;2022-07-05T03:37:20;94043.06;;;17.59;69.81
61870;BME280;47810;42.264;23.826;2022-07-05T03:39:46;94050.09;;;17.50;70.27
61870;BME280;47810;42.264;23.826;2022-07-05T03:42:11;94045.59;;;17.51;70.23
61870;BME280;47810;42.264;23.826;2022-07-05T03:44:37;94054.28;;;17.53;69.78
61870;BME280;47810;42.264;23.826;2022-07-05T03:47:03;94039.16;;;17.63;70.26
61870;BME280;47810;42.264;23.826;2022-07-05T03:49:29;94049.28;;;17.59;70.72
61870;BME280;47810;42.264;23.826;2022-07-05T03:51:55;94050.41;;;17.76;70.16
61870;BME280;47810;42.264;23.826;2022-07-05T03:54:20;94052.97;;;17.97;70.22
61870;BME280;47810;42.264;23.826;2022-07-05T03:56:46;94058.03;;;18.49;70.67
61870;BME280;47810;42.264;23.826;2022-07-05T03:59:12;94046.44;;;18.68;68.63
61870;BME280;47810;42.264;23.826;2022-07-05T04:01:38;94040.50;;;18.17;69.28
61870;BME280;47810;42.264;23.826;2022-07-05T04:04:03;94047.91;;;18.23;69.48
61870;BME280;47810;42.264;23.826;2022-07-05T04:06:29;94044.13;;;18.16;69.40
61870;BME280;47810;42.264;23.826;2022-07-05T04:08:55;94047.22;;;18.31;69.13
61870;BME280;47810;42.264;23.826;2022-07-05T04:11:21;94046.66;;;18.37;68.64
61870;BME280;47810;42.264;23.826;2022-07-05T04:13:46;94049.97;;;18.58;69.95
61870;BME280;47810;42.264;23.826;2022-07-05T04:16:12;94043.38;;;18.72;70.08
61870;BME280;47810;42.264;23.826;2022-07-05T04:18:38;94042.22;;;18.84;66.56
61870;BME280;47810;42.264;23.826;2022-07-05T04:21:04;94042.03;;;18.96;69.35
61870;BME280;47810;42.264;23.826;2022-07-05T04:23:31;94036.47;;;19.17;67.79
61870;BME280;47810;42.264;23.826;2022-07-05T04:25:57;94038.09;;;19.27;66.48
61870;BME280;47810;42.264;23.826;2022-07-05T04:28:22;94036.94;;;19.40;66.39
61870;BME280;47810;42.264;23.826;2022-07-05T04:30:48;94034.59;;;19.27;64.74
61870;BME280;47810;42.264;23.826;2022-07-05T04:33:14;94029.63;;;19.32;65.43
61870;BME280;47810;42.264;23.826;2022-07-05T04:35:40;94029.22;;;19.54;63.34
61870;BME280;47810;42.264;23.826;2022-07-05T04:38:06;94042.88;;;19.34;63.98
61870;BME280;47810;42.264;23.826;2022-07-05T04:40:32;94038.16;;;19.18;66.01
61870;BME280;47810;42.264;23.826;2022-07-05T04:42:58;94039.53;;;19.22;67.73
61870;BME280;47810;42.264;23.826;2022-07-05T04:45:23;94038.59;;;19.41;66.04
61870;BME280;47810;42.264;23.826;2022-07-05T04:47:49;94045.94;;;19.39;66.39
61870;BME280;47810;42.264;23.826;2022-07-05T04:50:15;94045.34;;;19.45;66.48
61870;BME280;47810;42.264;23.826;2022-07-05T04:52:41;94047.75;;;19.75;66.39
61870;BME280;47810;42.264;23.826;2022-07-05T04:55:06;94046.97;;;19.65;65.46
61870;BME280;47810;42.264;23.826;2022-07-05T04:57:39;94047.22;;;19.62;64.28
61870;BME280;47810;42.264;23.826;2022-07-05T05:00:08;94047.75;;;19.75;65.04
61870;BME280;47810;42.264;23.826;2022-07-05T05:02:34;94055.84;;;19.84;63.97
61870;BME280;47810;42.264;23.826;2022-07-05T05:05:01;94047.59;;;19.95;66.43
61870;BME280;47810;42.264;23.826;2022-07-05T05:07:26;94053.66;;;19.97;65.75
61870;BME280;47810;42.264;23.826;2022-07-05T05:09:52;94045.94;;;19.94;64.11
61870;BME280;47810;42.264;23.826;2022-07-05T05:12:18;94043.63;;;19.99;65.49
61870;BME280;47810;42.264;23.826;2022-07-05T05:14:44;94037.94;;;20.02;65.34
61870;BME280;47810;42.264;23.826;2022-07-05T05:17:10;94041.47;;;20.20;65.04
61870;BME280;47810;42.264;23.826;2022-07-05T05:19:36;94040.13;;;20.16;64.11
61870;BME280;47810;42.264;23.826;2022-07-05T05:22:01;94041.63;;;20.19;64.89
61870;BME280;47810;42.264;23.826;2022-07-05T05:24:27;94039.09;;;20.35;64.56
61870;BME280;47810;42.264;23.826;2022-07-05T05:26:53;94039.31;;;20.42;64.81
61870;BME280;47810;42.264;23.826;2022-07-05T05:29:19;94040.31;;;20.41;63.87
61870;BME280;47810;42.264;23.826;2022-07-05T05:31:46;94042.91;;;20.51;64.39
61870;BME280;47810;42.264;23.826;2022-07-05T05:34:12;94041.47;;;20.56;64.06
61870;BME280;47810;42.264;23.826;2022-07-05T05:36:38;94046.84;;;20.56;62.91
61870;BME280;47810;42.264;23.826;2022-07-05T05:39:04;94042.22;;;20.66;63.44
61870;BME280;47810;42.264;23.826;2022-07-05T05:41:30;94035.16;;;20.65;62.79
61870;BME280;47810;42.264;23.826;2022-07-05T05:43:56;94043.03;;;20.67;62.40
61870;BME280;47810;42.264;23.826;2022-07-05T05:46:22;94037.06;;;20.73;62.36
61870;BME280;47810;42.264;23.826;2022-07-05T05:48:48;94033.63;;;20.89;61.34
61870;BME280;47810;42.264;23.826;2022-07-05T05:51:14;94041.06;;;20.95;61.09
61870;BME280;47810;42.264;23.826;2022-07-05T05:53:40;94042.84;;;21.12;60.84
61870;BME280;47810;42.264;23.826;2022-07-05T05:56:05;94049.19;;;21.03;59.09
61870;BME280;47810;42.264;23.826;2022-07-05T05:58:31;94052.50;;;20.97;59.72
61870;BME280;47810;42.264;23.826;2022-07-05T06:00:57;94055.91;;;21.07;58.98
61870;BME280;47810;42.264;23.826;2022-07-05T06:03:25;94059.13;;;21.11;59.07
61870;BME280;47810;42.264;23.826;2022-07-05T06:05:52;94056.63;;;21.17;58.43
61870;BME280;47810;42.264;23.826;2022-07-05T06:08:18;94057.34;;;21.28;57.93
61870;BME280;47810;42.264;23.826;2022-07-05T06:10:45;94061.75;;;21.29;57.28
61870;BME280;47810;42.264;23.826;2022-07-05T06:13:12;94058.78;;;21.40;58.73
61870;BME280;47810;42.264;23.826;2022-07-05T06:15:39;94055.63;;;21.87;61.26
61870;BME280;47810;42.264;23.826;2022-07-05T06:18:07;94051.31;;;21.60;55.16
61870;BME280;47810;42.264;23.826;2022-07-05T06:20:34;94047.00;;;21.75;58.27
61870;BME280;47810;42.264;23.826;2022-07-05T06:23:01;94048.16;;;21.73;57.93
61870;BME280;47810;42.264;23.826;2022-07-05T06:25:28;94047.50;;;21.79;57.86
61870;BME280;47810;42.264;23.826;2022-07-05T06:27:56;94047.88;;;21.84;57.12
61870;BME280;47810;42.264;23.826;2022-07-05T06:30:25;94049.91;;;21.98;56.52
61870;BME280;47810;42.264;23.826;2022-07-05T06:32:52;94043.56;;;21.99;57.42
61870;BME280;47810;42.264;23.826;2022-07-05T06:35:18;94052.31;;;22.09;56.29
61870;BME280;47810;42.264;23.826;2022-07-05T06:37:46;94051.03;;;22.22;56.30
61870;BME280;47810;42.264;23.826;2022-07-05T06:40:17;94058.06;;;22.23;56.27
61870;BME280;47810;42.264;23.826;2022-07-05T06:42:43;94051.03;;;22.22;55.20
61870;BME280;47810;42.264;23.826;2022-07-05T06:45:09;94046.31;;;22.32;55.70
61870;BME280;47810;42.264;23.826;2022-07-05T06:47:35;94048.34;;;22.46;56.14
61870;BME280;47810;42.264;23.826;2022-07-05T06:50:02;94055.41;;;22.55;56.26
61870;BME280;47810;42.264;23.826;2022-07-05T06:52:29;94058.75;;;22.82;56.09
61870;BME280;47810;42.264;23.826;2022-07-05T06:54:55;94043.81;;;22.79;55.79
61870;BME280;47810;42.264;23.826;2022-07-05T06:57:22;94044.78;;;22.87;55.65
61870;BME280;47810;42.264;23.826;2022-07-05T06:59:48;94037.91;;;22.92;54.54
61870;BME280;47810;42.264;23.826;2022-07-05T07:02:14;94034.22;;;22.93;54.64
61870;BME280;47810;42.264;23.826;2022-07-05T07:04:40;94039.91;;;23.07;55.28
61870;BME280;47810;42.264;23.826;2022-07-05T07:07:06;94038.19;;;23.22;58.35
61870;BME280;47810;42.264;23.826;2022-07-05T07:09:50;94029.09;;;23.23;57.66
61870;BME280;47810;42.264;23.826;2022-07-05T07:12:16;94026.09;;;23.18;56.27
61870;BME280;47810;42.264;23.826;2022-07-05T07:14:42;94024.69;;;23.30;53.85
61870;BME280;47810;42.264;23.826;2022-07-05T07:17:08;94022.59;;;23.48;53.52
61870;BME280;47810;42.264;23.826;2022-07-05T07:19:34;94028.50;;;23.91;55.43
61870;BME280;47810;42.264;23.826;2022-07-05T07:21:59;94022.19;;;23.76;53.95
61870;BME280;47810;42.264;23.826;2022-07-05T07:24:25;94019.09;;;23.87;53.76
61870;BME280;47810;42.264;23.826;2022-07-05T07:26:51;94022.09;;;23.92;54.47
61870;BME280;47810;42.264;23.826;2022-07-05T07:29:30;94022.66;;;24.11;53.63
61870;BME280;47810;42.264;23.826;2022-07-05T07:31:57;94022.34;;;24.06;57.21
61870;BME280;47810;42.264;23.826;2022-07-05T07:34:23;94022.97;;;24.16;53.58
61870;BME280;47810;42.264;23.826;2022-07-05T07:36:49;94026.63;;;24.23;53.47
61870;BME280;47810;42.264;23.826;2022-07-05T07:39:15;94029.06;;;24.41;54.05
61870;BME280;47810;42.264;23.826;2022-07-05T07:41:41;94020.28;;;24.62;52.65
61870;BME280;47810;42.264;23.826;2022-07-05T07:44:07;94024.34;;;24.81;52.25
61870;BME280;47810;42.264;23.826;2022-07-05T07:46:33;94024.41;;;25.10;54.75
61870;BME280;47810;42.264;23.826;2022-07-05T07:48:58;94019.59;;;25.36;49.92
61870;BME280;47810;42.264;23.826;2022-07-05T07:51:24;94025.09;;;25.27;51.33
61870;BME280;47810;42.264;23.826;2022-07-05T07:53:50;94014.56;;;25.47;51.10
61870;BME280;47810;42.264;23.826;2022-07-05T07:56:16;94024.50;;;25.62;49.60
61870;BME280;47810;42.264;23.826;2022-07-05T07:58:42;94016.41;;;25.76;49.17
61870;BME280;47810;42.264;23.826;2022-07-05T08:01:08;94015.69;;;25.83;47.92
61870;BME280;47810;42.264;23.826;2022-07-05T08:03:43;94021.78;;;26.06;50.80
61870;BME280;47810;42.264;23.826;2022-07-05T08:06:10;94023.03;;;26.25;47.25
61870;BME280;47810;42.264;23.826;2022-07-05T08:08:39;94025.25;;;26.36;47.20
61870;BME280;47810;42.264;23.826;2022-07-05T08:11:07;94031.72;;;26.42;46.85
61870;BME280;47810;42.264;23.826;2022-07-05T08:13:37;94028.44;;;26.61;48.03
61870;BME280;47810;42.264;23.826;2022-07-05T08:16:03;94035.38;;;26.92;51.82
61870;BME280;47810;42.264;23.826;2022-07-05T08:18:29;94033.81;;;27.04;47.15
61870;BME280;47810;42.264;23.826;2022-07-05T08:21:13;94040.19;;;26.97;48.02
61870;BME280;47810;42.264;23.826;2022-07-05T08:23:58;94034.75;;;27.46;47.54
61870;BME280;47810;42.264;23.826;2022-07-05T08:26:26;94041.03;;;27.81;48.32
61870;BME280;47810;42.264;23.826;2022-07-05T08:28:52;94032.41;;;28.13;45.62
61870;BME280;47810;42.264;23.826;2022-07-05T08:31:19;94039.97;;;28.24;44.12
61870;BME280;47810;42.264;23.826;2022-07-05T08:33:45;94036.25;;;28.38;43.73
61870;BME280;47810;42.264;23.826;2022-07-05T08:36:11;94022.00;;;28.23;42.71
61870;BME280;47810;42.264;23.826;2022-07-05T08:38:37;94020.44;;;28.48;44.06
61870;BME280;47810;42.264;23.826;2022-07-05T08:41:07;94024.66;;;28.71;47.29
61870;BME280;47810;42.264;23.826;2022-07-05T08:43:35;94016.50;;;28.97;42.78
61870;BME280;47810;42.264;23.826;2022-07-05T08:46:02;94013.81;;;29.11;42.59
61870;BME280;47810;42.264;23.826;2022-07-05T08:48:29;94010.22;;;29.57;45.38
61870;BME280;47810;42.264;23.826;2022-07-05T08:50:56;94016.25;;;29.72;40.98
61870;BME280;47810;42.264;23.826;2022-07-05T08:53:24;94012.50;;;29.73;40.16
61870;BME280;47810;42.264;23.826;2022-07-05T08:55:50;94007.00;;;29.86;40.53
61870;BME280;47810;42.264;23.826;2022-07-05T08:58:16;94000.72;;;29.92;39.78
61870;BME280;47810;42.264;23.826;2022-07-05T09:00:43;93998.25;;;30.29;41.69
61870;BME280;47810;42.264;23.826;2022-07-05T09:03:09;94002.03;;;30.28;40.57
61870;BME280;47810;42.264;23.826;2022-07-05T09:05:45;93994.31;;;30.18;40.27
61870;BME280;47810;42.264;23.826;2022-07-05T09:08:14;94002.63;;;30.30;41.06
61870;BME280;47810;42.264;23.826;2022-07-05T09:10:43;93993.31;;;30.51;41.18
61870;BME280;47810;42.264;23.826;2022-07-05T09:13:09;93992.63;;;30.56;36.13
61870;BME280;47810;42.264;23.826;2022-07-05T09:15:38;93989.63;;;30.71;41.92
61870;BME280;47810;42.264;23.826;2022-07-05T09:18:04;93996.78;;;30.65;37.78
61870;BME280;47810;42.264;23.826;2022-07-05T09:20:30;93988.53;;;30.78;39.22
61870;BME280;47810;42.264;23.826;2022-07-05T09:22:56;93982.53;;;30.95;39.45
61870;BME280;47810;42.264;23.826;2022-07-05T09:25:30;93986.59;;;31.10;39.79
61870;BME280;47810;42.264;23.826;2022-07-05T09:28:04;93981.13;;;31.10;39.92
61870;BME280;47810;42.264;23.826;2022-07-05T09:30:36;93987.47;;;31.11;39.07
61870;BME280;47810;42.264;23.826;2022-07-05T09:35:37;93971.69;;;31.38;38.23
61870;BME280;47810;42.264;23.826;2022-07-05T09:38:15;93976.31;;;31.38;38.81
61870;BME280;47810;42.264;23.826;2022-07-05T09:40:56;93976.88;;;31.65;36.49
61870;BME280;47810;42.264;23.826;2022-07-05T09:43:26;93971.16;;;31.48;37.74
61870;BME280;47810;42.264;23.826;2022-07-05T09:48:23;93967.25;;;31.99;36.59
61870;BME280;47810;42.264;23.826;2022-07-05T09:50:50;93973.75;;;32.16;35.32
61870;BME280;47810;42.264;23.826;2022-07-05T09:53:19;93974.34;;;32.37;38.14
61870;BME280;47810;42.264;23.826;2022-07-05T09:56:03;93972.19;;;32.39;36.67
61870;BME280;47810;42.264;23.826;2022-07-05T09:58:36;93969.31;;;32.52;34.98
61870;BME280;47810;42.264;23.826;2022-07-05T10:01:31;93960.63;;;32.55;35.54
61870;BME280;47810;42.264;23.826;2022-07-05T10:03:59;93972.53;;;32.49;36.30
61870;BME280;47810;42.264;23.826;2022-07-05T10:06:31;93970.94;;;32.72;34.10
61870;BME280;47810;42.264;23.826;2022-07-05T10:08:58;93957.78;;;32.50;35.47
61870;BME280;47810;42.264;23.826;2022-07-05T10:11:24;93959.78;;;32.43;35.65
61870;BME280;47810;42.264;23.826;2022-07-05T10:13:52;93956.13;;;32.49;35.25
61870;BME280;47810;42.264;23.826;2022-07-05T10:16:22;93958.66;;;32.62;34.47
61870;BME280;47810;42.264;23.826;2022-07-05T10:18:54;93950.25;;;32.76;34.72
61870;BME280;47810;42.264;23.826;2022-07-05T10:21:20;93950.25;;;32.76;33.95
61870;BME280;47810;42.264;23.826;2022-07-05T10:23:51;93943.28;;;32.61;34.84
61870;BME280;47810;42.264;23.826;2022-07-05T10:26:20;93945.31;;;32.54;34.78
61870;BME280;47810;42.264;23.826;2022-07-05T10:28:51;93954.69;;;32.58;35.04
61870;BME280;47810;42.264;23.826;2022-07-05T10:31:17;93949.25;;;32.70;33.03
61870;BME280;47810;42.264;23.826;2022-07-05T10:33:43;93951.56;;;32.85;34.13
61870;BME280;47810;42.264;23.826;2022-07-05T10:36:11;93949.59;;;33.15;34.34
61870;BME280;47810;42.264;23.826;2022-07-05T10:38:42;93951.47;;;33.03;34.08
61870;BME280;47810;42.264;23.826;2022-07-05T10:41:12;93947.44;;;32.94;33.99
61870;BME280;47810;42.264;23.826;2022-07-05T10:43:39;93946.63;;;33.05;33.89
61870;BME280;47810;42.264;23.826;2022-07-05T10:46:05;93944.03;;;33.10;34.34
61870;BME280;47810;42.264;23.826;2022-07-05T10:48:34;93947.91;;;32.91;32.84
61870;BME280;47810;42.264;23.826;2022-07-05T10:51:23;93945.09;;;32.67;33.51
61870;BME280;47810;42.264;23.826;2022-07-05T10:56:24;93936.28;;;33.07;32.67
61870;BME280;47810;42.264;23.826;2022-07-05T10:59:04;93936.63;;;33.34;34.66
61870;BME280;47810;42.264;23.826;2022-07-05T11:01:41;93925.44;;;33.48;33.77
61870;BME280;47810;42.264;23.826;2022-07-05T11:04:13;93924.97;;;33.51;33.39
61870;BME280;47810;42.264;23.826;2022-07-05T11:06:43;93929.38;;;33.40;31.98
61870;BME280;47810;42.264;23.826;2022-07-05T11:11:41;93923.91;;;33.63;33.16
61870;BME280;47810;42.264;23.826;2022-07-05T11:19:59;93917.94;;;33.43;32.95
61870;BME280;47810;42.264;23.826;2022-07-05T11:22:25;93919.72;;;33.37;33.00
61870;BME280;47810;42.264;23.826;2022-07-05T11:24:51;93920.13;;;33.53;35.00
61870;BME280;47810;42.264;23.826;2022-07-05T11:27:18;93916.50;;;33.76;32.74
61870;BME280;47810;42.264;23.826;2022-07-05T11:29:48;93918.00;;;33.95;33.03
61870;BME280;47810;42.264;23.826;2022-07-05T11:34:44;93913.16;;;33.74;34.82
61870;BME280;47810;42.264;23.826;2022-07-05T11:39:40;93907.81;;;33.44;33.45
61870;BME280;47810;42.264;23.826;2022-07-05T11:42:11;93911.28;;;33.39;33.36
61870;BME280;47810;42.264;23.826;2022-07-05T11:44:44;93907.84;;;33.55;33.91
61870;BME280;47810;42.264;23.826;2022-07-05T11:47:15;93901.44;;;33.50;34.30
61870;BME280;47810;42.264;23.826;2022-07-05T11:49:45;93899.63;;;33.55;33.94
61870;BME280;47810;42.264;23.826;2022-07-05T11:52:25;93903.81;;;33.86;33.41
61870;BME280;47810;42.264;23.826;2022-07-05T11:54:51;93897.63;;;33.91;34.65
61870;BME280;47810;42.264;23.826;2022-07-05T11:57:18;93898.69;;;33.90;34.27
61870;BME280;47810;42.264;23.826;2022-07-05T11:59:45;93901.84;;;33.82;33.48
61870;BME280;47810;42.264;23.826;2022-07-05T12:02:11;93900.06;;;33.76;33.23
61870;BME280;47810;42.264;23.826;2022-07-05T12:04:37;93903.59;;;33.88;32.65
61870;BME280;47810;42.264;23.826;2022-07-05T12:07:03;93907.50;;;33.92;33.99
61870;BME280;47810;42.264;23.826;2022-07-05T12:09:33;93900.66;;;33.78;33.63
61870;BME280;47810;42.264;23.826;2022-07-05T12:12:22;93902.22;;;33.38;34.12
61870;BME280;47810;42.264;23.826;2022-07-05T12:15:17;93904.47;;;32.94;35.39
61870;BME280;47810;42.264;23.826;2022-07-05T12:17:46;93902.28;;;32.61;33.97
61870;BME280;47810;42.264;23.826;2022-07-05T12:20:20;93899.41;;;32.26;35.99
61870;BME280;47810;42.264;23.826;2022-07-05T12:22:48;93897.53;;;31.78;35.60
61870;BME280;47810;42.264;23.826;2022-07-05T12:25:22;93904.38;;;31.50;36.18
61870;BME280;47810;42.264;23.826;2022-07-05T12:27:52;93902.41;;;31.39;34.53
61870;BME280;47810;42.264;23.826;2022-07-05T12:30:18;93904.34;;;31.32;36.53
61870;BME280;47810;42.264;23.826;2022-07-05T12:32:58;93907.31;;;31.30;36.53
61870;BME280;47810;42.264;23.826;2022-07-05T12:35:40;93902.28;;;31.09;38.08
61870;BME280;47810;42.264;23.826;2022-07-05T12:38:15;93909.91;;;31.00;37.27
61870;BME280;47810;42.264;23.826;2022-07-05T12:40:48;93888.00;;;31.07;37.24
61870;BME280;47810;42.264;23.826;2022-07-05T12:43:16;93885.19;;;31.39;36.59
61870;BME280;47810;42.264;23.826;2022-07-05T12:45:57;93888.38;;;31.54;35.95
61870;BME280;47810;42.264;23.826;2022-07-05T12:48:53;93881.56;;;31.45;36.74
61870;BME280;47810;42.264;23.826;2022-07-05T12:51:34;93878.28;;;31.73;35.92
61870;BME280;47810;42.264;23.826;2022-07-05T12:54:01;93870.47;;;31.95;36.30
61870;BME280;47810;42.264;23.826;2022-07-05T12:56:53;93864.47;;;32.16;35.59
61870;BME280;47810;42.264;23.826;2022-07-05T12:59:38;93858.41;;;32.14;35.72
61870;BME280;47810;42.264;23.826;2022-07-05T13:02:06;93850.47;;;32.24;34.88
61870;BME280;47810;42.264;23.826;2022-07-05T13:04:34;93843.47;;;32.29;35.43
61870;BME280;47810;42.264;23.826;2022-07-05T13:07:02;93841.19;;;32.25;35.60
61870;BME280;47810;42.264;23.826;2022-07-05T13:12:15;93838.88;;;32.41;36.19
61870;BME280;47810;42.264;23.826;2022-07-05T13:14:51;93834.16;;;32.48;36.20
61870;BME280;47810;42.264;23.826;2022-07-05T13:17:20;93842.34;;;32.48;35.71
61870;BME280;47810;42.264;23.826;2022-07-05T13:19:47;93837.34;;;32.45;34.41